Terminal Aerodrome Forecast
Issued by NWS

Home | Current Version | Previous Version | Graphics & Text | Print | Product List | Glossary On
Versions: 1 2 3 4 5 6 7 8 9 10 11 12 13 14 15 16
273
FTUS43 KGRB 082320
TAFAUW
TAF
KAUW 082320Z 0900/0924 30011G16KT P6SM BKN040
     FM090400 30009KT P6SM BKN028
     FM091500 29008G15KT P6SM BKN035=

USA.gov is the U.S. government's official web portal to all federal, state and local government web resources and services.